sensor_id;sensor_type;location;lat;lon;timestamp;P1;durP1;ratioP1;P2;durP2;ratioP2
28174;SDS011;59417;44.788;10.334;2023-05-17T00:02:16;5.32;;;2.38;;
28174;SDS011;59417;44.788;10.334;2023-05-17T00:04:42;7.15;;;2.97;;
28174;SDS011;59417;44.788;10.334;2023-05-17T00:07:09;4.85;;;2.58;;
28174;SDS011;59417;44.788;10.334;2023-05-17T00:09:35;4.93;;;2.65;;
28174;SDS011;59417;44.788;10.334;2023-05-17T00:12:00;4.45;;;2.22;;
28174;SDS011;59417;44.788;10.334;2023-05-17T00:14:26;3.80;;;2.25;;
28174;SDS011;59417;44.788;10.334;2023-05-17T00:16:52;3.75;;;2.38;;
28174;SDS011;59417;44.788;10.334;2023-05-17T00:19:18;4.07;;;2.45;;
28174;SDS011;59417;44.788;10.334;2023-05-17T00:21:43;2.65;;;2.10;;
28174;SDS011;59417;44.788;10.334;2023-05-17T00:24:09;5.72;;;2.40;;
28174;SDS011;59417;44.788;10.334;2023-05-17T00:26:35;4.43;;;2.13;;
28174;SDS011;59417;44.788;10.334;2023-05-17T00:29:01;3.55;;;2.20;;
28174;SDS011;59417;44.788;10.334;2023-05-17T00:31:27;2.45;;;1.83;;
28174;SDS011;59417;44.788;10.334;2023-05-17T00:33:53;3.72;;;1.83;;
28174;SDS011;59417;44.788;10.334;2023-05-17T00:36:19;2.80;;;1.63;;
28174;SDS011;59417;44.788;10.334;2023-05-17T00:38:45;3.03;;;1.35;;
28174;SDS011;59417;44.788;10.334;2023-05-17T00:41:10;2.08;;;1.23;;
28174;SDS011;59417;44.788;10.334;2023-05-17T00:43:38;1.70;;;1.50;;
28174;SDS011;59417;44.788;10.334;2023-05-17T00:46:03;3.65;;;1.55;;
28174;SDS011;59417;44.788;10.334;2023-05-17T00:48:29;3.08;;;1.73;;
28174;SDS011;59417;44.788;10.334;2023-05-17T00:50:55;3.92;;;2.22;;
28174;SDS011;59417;44.788;10.334;2023-05-17T00:53:22;3.35;;;1.73;;
28174;SDS011;59417;44.788;10.334;2023-05-17T00:55:48;7.13;;;2.25;;
28174;SDS011;59417;44.788;10.334;2023-05-17T00:58:15;4.90;;;1.90;;
28174;SDS011;59417;44.788;10.334;2023-05-17T01:00:41;4.85;;;2.13;;
28174;SDS011;59417;44.788;10.334;2023-05-17T01:03:07;2.30;;;1.50;;
28174;SDS011;59417;44.788;10.334;2023-05-17T01:05:33;3.05;;;1.90;;
28174;SDS011;59417;44.788;10.334;2023-05-17T01:08:01;5.07;;;2.13;;
28174;SDS011;59417;44.788;10.334;2023-05-17T01:10:34;4.05;;;2.10;;
28174;SDS011;59417;44.788;10.334;2023-05-17T01:13:08;3.78;;;1.77;;
28174;SDS011;59417;44.788;10.334;2023-05-17T01:15:44;3.45;;;2.10;;
28174;SDS011;59417;44.788;10.334;2023-05-17T01:20:47;3.42;;;2.05;;
28174;SDS011;59417;44.788;10.334;2023-05-17T01:29:08;2.47;;;1.55;;
28174;SDS011;59417;44.788;10.334;2023-05-17T01:31:35;2.92;;;2.10;;
28174;SDS011;59417;44.788;10.334;2023-05-17T01:34:05;3.38;;;1.80;;
28174;SDS011;59417;44.788;10.334;2023-05-17T01:36:34;3.30;;;2.30;;
28174;SDS011;59417;44.788;10.334;2023-05-17T01:39:00;2.47;;;1.75;;
28174;SDS011;59417;44.788;10.334;2023-05-17T01:49:17;3.83;;;2.13;;
28174;SDS011;59417;44.788;10.334;2023-05-17T01:51:50;3.33;;;2.10;;
28174;SDS011;59417;44.788;10.334;2023-05-17T01:54:20;3.20;;;2.42;;
28174;SDS011;59417;44.788;10.334;2023-05-17T01:56:55;2.50;;;2.10;;
28174;SDS011;59417;44.788;10.334;2023-05-17T01:59:23;2.85;;;2.03;;
28174;SDS011;59417;44.788;10.334;2023-05-17T02:01:54;2.10;;;1.90;;
28174;SDS011;59417;44.788;10.334;2023-05-17T02:04:24;2.45;;;1.92;;
28174;SDS011;59417;44.788;10.334;2023-05-17T02:06:51;2.90;;;1.85;;
28174;SDS011;59417;44.788;10.334;2023-05-17T02:09:16;2.35;;;1.80;;
28174;SDS011;59417;44.788;10.334;2023-05-17T02:11:42;4.32;;;1.80;;
28174;SDS011;59417;44.788;10.334;2023-05-17T02:14:07;3.33;;;1.88;;
28174;SDS011;59417;44.788;10.334;2023-05-17T02:16:33;2.30;;;1.80;;
28174;SDS011;59417;44.788;10.334;2023-05-17T02:18:59;1.58;;;1.48;;
28174;SDS011;59417;44.788;10.334;2023-05-17T02:21:24;1.55;;;1.27;;
28174;SDS011;59417;44.788;10.334;2023-05-17T02:23:50;5.45;;;1.33;;
28174;SDS011;59417;44.788;10.334;2023-05-17T02:26:17;2.80;;;1.70;;
28174;SDS011;59417;44.788;10.334;2023-05-17T02:28:43;2.58;;;1.60;;
28174;SDS011;59417;44.788;10.334;2023-05-17T02:31:08;3.28;;;1.50;;
28174;SDS011;59417;44.788;10.334;2023-05-17T02:33:34;4.43;;;1.33;;
28174;SDS011;59417;44.788;10.334;2023-05-17T02:36:00;1.73;;;1.58;;
28174;SDS011;59417;44.788;10.334;2023-05-17T02:38:25;1.88;;;1.65;;
28174;SDS011;59417;44.788;10.334;2023-05-17T02:40:51;4.78;;;1.45;;
28174;SDS011;59417;44.788;10.334;2023-05-17T02:43:17;1.77;;;1.27;;
28174;SDS011;59417;44.788;10.334;2023-05-17T02:45:42;1.95;;;1.40;;
28174;SDS011;59417;44.788;10.334;2023-05-17T02:48:11;1.98;;;1.30;;
28174;SDS011;59417;44.788;10.334;2023-05-17T02:50:37;2.20;;;1.40;;
28174;SDS011;59417;44.788;10.334;2023-05-17T02:53:02;2.95;;;1.40;;
28174;SDS011;59417;44.788;10.334;2023-05-17T02:55:28;1.88;;;1.27;;
28174;SDS011;59417;44.788;10.334;2023-05-17T02:57:54;4.32;;;1.50;;
28174;SDS011;59417;44.788;10.334;2023-05-17T03:00:21;5.03;;;1.30;;
28174;SDS011;59417;44.788;10.334;2023-05-17T03:02:46;2.17;;;1.52;;
28174;SDS011;59417;44.788;10.334;2023-05-17T03:05:12;4.20;;;1.90;;
28174;SDS011;59417;44.788;10.334;2023-05-17T03:07:44;4.03;;;1.55;;
28174;SDS011;59417;44.788;10.334;2023-05-17T03:10:10;2.45;;;1.10;;
28174;SDS011;59417;44.788;10.334;2023-05-17T03:12:40;2.38;;;1.40;;
28174;SDS011;59417;44.788;10.334;2023-05-17T03:15:07;4.90;;;1.20;;
28174;SDS011;59417;44.788;10.334;2023-05-17T03:17:33;1.52;;;1.10;;
28174;SDS011;59417;44.788;10.334;2023-05-17T03:19:58;2.25;;;1.42;;
28174;SDS011;59417;44.788;10.334;2023-05-17T03:22:24;2.75;;;1.50;;
28174;SDS011;59417;44.788;10.334;2023-05-17T03:24:51;2.38;;;1.35;;
28174;SDS011;59417;44.788;10.334;2023-05-17T03:27:18;1.67;;;1.23;;
28174;SDS011;59417;44.788;10.334;2023-05-17T03:29:44;4.25;;;1.23;;
28174;SDS011;59417;44.788;10.334;2023-05-17T03:32:10;2.40;;;1.50;;
28174;SDS011;59417;44.788;10.334;2023-05-17T03:34:35;1.30;;;1.20;;
28174;SDS011;59417;44.788;10.334;2023-05-17T03:37:01;1.63;;;1.33;;
28174;SDS011;59417;44.788;10.334;2023-05-17T03:39:27;3.40;;;1.30;;
28174;SDS011;59417;44.788;10.334;2023-05-17T03:41:53;1.70;;;1.52;;
28174;SDS011;59417;44.788;10.334;2023-05-17T03:44:20;3.63;;;1.58;;
28174;SDS011;59417;44.788;10.334;2023-05-17T03:46:46;2.00;;;1.40;;
28174;SDS011;59417;44.788;10.334;2023-05-17T03:49:13;3.78;;;1.70;;
28174;SDS011;59417;44.788;10.334;2023-05-17T03:51:39;4.70;;;1.33;;
28174;SDS011;59417;44.788;10.334;2023-05-17T03:54:04;3.22;;;1.70;;
28174;SDS011;59417;44.788;10.334;2023-05-17T03:56:31;1.65;;;1.27;;
28174;SDS011;59417;44.788;10.334;2023-05-17T03:58:56;1.15;;;1.02;;
28174;SDS011;59417;44.788;10.334;2023-05-17T04:01:22;2.80;;;1.10;;
28174;SDS011;59417;44.788;10.334;2023-05-17T04:03:48;1.77;;;1.30;;
28174;SDS011;59417;44.788;10.334;2023-05-17T04:06:14;2.10;;;1.52;;
28174;SDS011;59417;44.788;10.334;2023-05-17T04:08:41;4.65;;;1.35;;
28174;SDS011;59417;44.788;10.334;2023-05-17T04:11:06;1.63;;;1.20;;
28174;SDS011;59417;44.788;10.334;2023-05-17T04:13:37;3.03;;;1.23;;
28174;SDS011;59417;44.788;10.334;2023-05-17T04:16:03;2.65;;;1.15;;
28174;SDS011;59417;44.788;10.334;2023-05-17T04:18:32;1.10;;;1.00;;
28174;SDS011;59417;44.788;10.334;2023-05-17T04:21:02;2.50;;;1.40;;
28174;SDS011;59417;44.788;10.334;2023-05-17T04:23:29;2.03;;;1.20;;
28174;SDS011;59417;44.788;10.334;2023-05-17T04:25:57;2.63;;;1.60;;
28174;SDS011;59417;44.788;10.334;2023-05-17T04:28:23;1.63;;;1.40;;
28174;SDS011;59417;44.788;10.334;2023-05-17T04:30:50;1.95;;;1.40;;
28174;SDS011;59417;44.788;10.334;2023-05-17T04:33:18;1.88;;;1.52;;
28174;SDS011;59417;44.788;10.334;2023-05-17T04:35:44;3.30;;;2.25;;
28174;SDS011;59417;44.788;10.334;2023-05-17T04:38:11;2.60;;;1.70;;
28174;SDS011;59417;44.788;10.334;2023-05-17T04:40:38;5.80;;;1.30;;
28174;SDS011;59417;44.788;10.334;2023-05-17T04:43:04;3.40;;;1.70;;
28174;SDS011;59417;44.788;10.334;2023-05-17T04:45:30;2.28;;;1.60;;
28174;SDS011;59417;44.788;10.334;2023-05-17T04:47:58;2.92;;;1.98;;
28174;SDS011;59417;44.788;10.334;2023-05-17T04:50:25;2.60;;;1.80;;
28174;SDS011;59417;44.788;10.334;2023-05-17T04:52:51;2.28;;;2.08;;
28174;SDS011;59417;44.788;10.334;2023-05-17T04:55:17;3.38;;;2.30;;
28174;SDS011;59417;44.788;10.334;2023-05-17T04:57:43;3.70;;;1.80;;
28174;SDS011;59417;44.788;10.334;2023-05-17T05:00:13;2.17;;;1.52;;
28174;SDS011;59417;44.788;10.334;2023-05-17T05:02:42;2.03;;;1.30;;
28174;SDS011;59417;44.788;10.334;2023-05-17T05:05:09;2.55;;;1.80;;
28174;SDS011;59417;44.788;10.334;2023-05-17T05:07:36;2.70;;;1.65;;
28174;SDS011;59417;44.788;10.334;2023-05-17T05:10:04;2.38;;;1.80;;
28174;SDS011;59417;44.788;10.334;2023-05-17T05:12:31;3.90;;;1.80;;
28174;SDS011;59417;44.788;10.334;2023-05-17T05:14:57;2.33;;;1.58;;
28174;SDS011;59417;44.788;10.334;2023-05-17T05:17:23;1.50;;;1.40;;
28174;SDS011;59417;44.788;10.334;2023-05-17T05:19:49;1.92;;;1.80;;
28174;SDS011;59417;44.788;10.334;2023-05-17T05:22:16;2.53;;;1.50;;
28174;SDS011;59417;44.788;10.334;2023-05-17T05:24:42;1.42;;;1.33;;
28174;SDS011;59417;44.788;10.334;2023-05-17T05:27:08;2.33;;;1.00;;
28174;SDS011;59417;44.788;10.334;2023-05-17T05:29:35;1.77;;;1.25;;
28174;SDS011;59417;44.788;10.334;2023-05-17T05:32:01;1.40;;;1.30;;
28174;SDS011;59417;44.788;10.334;2023-05-17T05:34:27;2.13;;;1.55;;
28174;SDS011;59417;44.788;10.334;2023-05-17T05:36:54;3.65;;;1.83;;
28174;SDS011;59417;44.788;10.334;2023-05-17T05:39:19;2.28;;;1.65;;
28174;SDS011;59417;44.788;10.334;2023-05-17T05:41:45;2.78;;;1.60;;
28174;SDS011;59417;44.788;10.334;2023-05-17T05:44:11;1.75;;;1.42;;
28174;SDS011;59417;44.788;10.334;2023-05-17T05:46:37;3.70;;;1.85;;
28174;SDS011;59417;44.788;10.334;2023-05-17T05:49:04;4.20;;;1.75;;
28174;SDS011;59417;44.788;10.334;2023-05-17T05:51:31;2.13;;;1.70;;
28174;SDS011;59417;44.788;10.334;2023-05-17T05:53:57;2.20;;;1.75;;
28174;SDS011;59417;44.788;10.334;2023-05-17T05:56:24;2.63;;;2.08;;
28174;SDS011;59417;44.788;10.334;2023-05-17T05:58:52;2.55;;;1.92;;
28174;SDS011;59417;44.788;10.334;2023-05-17T06:01:19;4.13;;;2.10;;
28174;SDS011;59417;44.788;10.334;2023-05-17T06:03:45;2.78;;;2.10;;
28174;SDS011;59417;44.788;10.334;2023-05-17T06:06:11;3.38;;;2.45;;
28174;SDS011;59417;44.788;10.334;2023-05-17T06:08:36;5.25;;;2.75;;
28174;SDS011;59417;44.788;10.334;2023-05-17T06:11:02;7.20;;;3.00;;
28174;SDS011;59417;44.788;10.334;2023-05-17T06:13:27;3.05;;;2.13;;
28174;SDS011;59417;44.788;10.334;2023-05-17T06:15:53;3.53;;;2.78;;
28174;SDS011;59417;44.788;10.334;2023-05-17T06:18:19;2.60;;;2.40;;
28174;SDS011;59417;44.788;10.334;2023-05-17T06:20:45;3.33;;;2.10;;
28174;SDS011;59417;44.788;10.334;2023-05-17T06:23:10;9.50;;;2.60;;
28174;SDS011;59417;44.788;10.334;2023-05-17T06:25:36;4.60;;;2.67;;
28174;SDS011;59417;44.788;10.334;2023-05-17T06:28:02;3.55;;;2.45;;
28174;SDS011;59417;44.788;10.334;2023-05-17T06:30:28;3.75;;;2.67;;
28174;SDS011;59417;44.788;10.334;2023-05-17T06:32:54;5.45;;;2.22;;
28174;SDS011;59417;44.788;10.334;2023-05-17T06:35:20;3.88;;;2.20;;
28174;SDS011;59417;44.788;10.334;2023-05-17T06:37:46;4.72;;;2.58;;
28174;SDS011;59417;44.788;10.334;2023-05-17T06:40:12;2.60;;;2.17;;
28174;SDS011;59417;44.788;10.334;2023-05-17T06:42:38;4.65;;;2.58;;
28174;SDS011;59417;44.788;10.334;2023-05-17T06:45:04;5.63;;;2.50;;
28174;SDS011;59417;44.788;10.334;2023-05-17T06:47:30;3.95;;;2.33;;
28174;SDS011;59417;44.788;10.334;2023-05-17T06:49:55;5.72;;;3.13;;
28174;SDS011;59417;44.788;10.334;2023-05-17T06:52:21;7.90;;;2.97;;
28174;SDS011;59417;44.788;10.334;2023-05-17T06:54:47;5.75;;;2.92;;
28174;SDS011;59417;44.788;10.334;2023-05-17T06:57:12;7.95;;;2.90;;
28174;SDS011;59417;44.788;10.334;2023-05-17T06:59:38;5.65;;;3.10;;
28174;SDS011;59417;44.788;10.334;2023-05-17T07:02:04;7.90;;;3.22;;
28174;SDS011;59417;44.788;10.334;2023-05-17T07:04:29;3.60;;;3.30;;
28174;SDS011;59417;44.788;10.334;2023-05-17T07:06:55;4.47;;;2.97;;
28174;SDS011;59417;44.788;10.334;2023-05-17T07:09:21;5.03;;;3.28;;
28174;SDS011;59417;44.788;10.334;2023-05-17T07:11:47;3.83;;;3.13;;
28174;SDS011;59417;44.788;10.334;2023-05-17T07:14:13;3.97;;;2.88;;
28174;SDS011;59417;44.788;10.334;2023-05-17T07:16:39;3.13;;;2.50;;
28174;SDS011;59417;44.788;10.334;2023-05-17T07:19:04;9.52;;;2.70;;
28174;SDS011;59417;44.788;10.334;2023-05-17T07:21:31;3.65;;;2.42;;
28174;SDS011;59417;44.788;10.334;2023-05-17T07:23:57;4.18;;;2.80;;
28174;SDS011;59417;44.788;10.334;2023-05-17T07:26:23;5.30;;;2.80;;
28174;SDS011;59417;44.788;10.334;2023-05-17T07:28:49;3.17;;;2.28;;
28174;SDS011;59417;44.788;10.334;2023-05-17T07:31:16;5.13;;;2.17;;
28174;SDS011;59417;44.788;10.334;2023-05-17T07:33:42;2.92;;;2.00;;
28174;SDS011;59417;44.788;10.334;2023-05-17T07:36:08;4.53;;;2.00;;
28174;SDS011;59417;44.788;10.334;2023-05-17T07:38:33;3.25;;;2.35;;
28174;SDS011;59417;44.788;10.334;2023-05-17T07:41:02;3.22;;;2.30;;
28174;SDS011;59417;44.788;10.334;2023-05-17T07:43:28;5.15;;;2.08;;
28174;SDS011;59417;44.788;10.334;2023-05-17T07:45:54;2.03;;;1.80;;
28174;SDS011;59417;44.788;10.334;2023-05-17T07:48:20;3.95;;;2.17;;
28174;SDS011;59417;44.788;10.334;2023-05-17T07:50:46;4.50;;;2.10;;
28174;SDS011;59417;44.788;10.334;2023-05-17T07:53:14;3.10;;;2.10;;
28174;SDS011;59417;44.788;10.334;2023-05-17T07:55:40;2.08;;;1.77;;
28174;SDS011;59417;44.788;10.334;2023-05-17T07:58:06;4.60;;;2.33;;
28174;SDS011;59417;44.788;10.334;2023-05-17T08:00:34;5.25;;;2.55;;
28174;SDS011;59417;44.788;10.334;2023-05-17T08:03:00;4.40;;;2.67;;
28174;SDS011;59417;44.788;10.334;2023-05-17T08:05:25;4.65;;;2.20;;
28174;SDS011;59417;44.788;10.334;2023-05-17T08:07:51;3.50;;;2.30;;
28174;SDS011;59417;44.788;10.334;2023-05-17T08:10:17;3.30;;;2.03;;
28174;SDS011;59417;44.788;10.334;2023-05-17T08:12:43;4.35;;;1.92;;
28174;SDS011;59417;44.788;10.334;2023-05-17T08:15:09;2.03;;;1.80;;
28174;SDS011;59417;44.788;10.334;2023-05-17T08:17:35;3.83;;;1.60;;
28174;SDS011;59417;44.788;10.334;2023-05-17T08:20:00;1.90;;;1.27;;
28174;SDS011;59417;44.788;10.334;2023-05-17T08:22:26;2.60;;;1.27;;
28174;SDS011;59417;44.788;10.334;2023-05-17T08:24:52;2.38;;;1.40;;
28174;SDS011;59417;44.788;10.334;2023-05-17T08:27:18;2.80;;;1.30;;
28174;SDS011;59417;44.788;10.334;2023-05-17T08:29:43;2.72;;;1.48;;
28174;SDS011;59417;44.788;10.334;2023-05-17T08:32:09;6.13;;;1.55;;
28174;SDS011;59417;44.788;10.334;2023-05-17T08:34:35;2.45;;;1.27;;
28174;SDS011;59417;44.788;10.334;2023-05-17T08:37:01;1.17;;;1.05;;
28174;SDS011;59417;44.788;10.334;2023-05-17T08:39:26;1.42;;;1.33;;
28174;SDS011;59417;44.788;10.334;2023-05-17T08:41:52;1.67;;;0.93;;
28174;SDS011;59417;44.788;10.334;2023-05-17T08:44:18;1.63;;;1.10;;
28174;SDS011;59417;44.788;10.334;2023-05-17T08:46:45;3.30;;;1.17;;
28174;SDS011;59417;44.788;10.334;2023-05-17T08:49:21;2.67;;;1.02;;
28174;SDS011;59417;44.788;10.334;2023-05-17T08:51:49;1.17;;;1.00;;
28174;SDS011;59417;44.788;10.334;2023-05-17T08:54:18;1.58;;;0.80;;
28174;SDS011;59417;44.788;10.334;2023-05-17T08:56:43;5.57;;;1.05;;
28174;SDS011;59417;44.788;10.334;2023-05-17T08:59:11;2.85;;;1.27;;
28174;SDS011;59417;44.788;10.334;2023-05-17T09:01:40;2.05;;;1.10;;
28174;SDS011;59417;44.788;10.334;2023-05-17T09:04:08;1.92;;;0.98;;
28174;SDS011;59417;44.788;10.334;2023-05-17T09:06:34;2.28;;;1.10;;
28174;SDS011;59417;44.788;10.334;2023-05-17T09:09:00;1.67;;;1.00;;
28174;SDS011;59417;44.788;10.334;2023-05-17T09:11:27;1.52;;;1.02;;
28174;SDS011;59417;44.788;10.334;2023-05-17T09:13:58;1.40;;;1.08;;
28174;SDS011;59417;44.788;10.334;2023-05-17T09:16:29;1.88;;;0.85;;
28174;SDS011;59417;44.788;10.334;2023-05-17T09:21:22;1.00;;;0.73;;
28174;SDS011;59417;44.788;10.334;2023-05-17T09:23:49;2.42;;;0.88;;
28174;SDS011;59417;44.788;10.334;2023-05-17T09:26:16;2.13;;;1.00;;
28174;SDS011;59417;44.788;10.334;2023-05-17T09:28:42;0.90;;;0.80;;
28174;SDS011;59417;44.788;10.334;2023-05-17T09:31:09;1.45;;;0.93;;
28174;SDS011;59417;44.788;10.334;2023-05-17T09:33:44;0.80;;;0.80;;
28174;SDS011;59417;44.788;10.334;2023-05-17T09:36:18;1.67;;;0.80;;
28174;SDS011;59417;44.788;10.334;2023-05-17T09:38:55;4.85;;;1.00;;
28174;SDS011;59417;44.788;10.334;2023-05-17T09:41:26;3.33;;;1.13;;
28174;SDS011;59417;44.788;10.334;2023-05-17T09:43:57;1.20;;;0.90;;
28174;SDS011;59417;44.788;10.334;2023-05-17T09:46:26;1.77;;;1.00;;
28174;SDS011;59417;44.788;10.334;2023-05-17T09:48:53;1.73;;;0.88;;
28174;SDS011;59417;44.788;10.334;2023-05-17T09:53:58;1.45;;;1.10;;
28174;SDS011;59417;44.788;10.334;2023-05-17T09:56:31;2.30;;;0.90;;
28174;SDS011;59417;44.788;10.334;2023-05-17T09:58:58;0.98;;;0.88;;
28174;SDS011;59417;44.788;10.334;2023-05-17T10:01:26;1.08;;;0.90;;
28174;SDS011;59417;44.788;10.334;2023-05-17T10:03:53;1.10;;;0.85;;
28174;SDS011;59417;44.788;10.334;2023-05-17T10:06:22;1.63;;;1.00;;
28174;SDS011;59417;44.788;10.334;2023-05-17T10:08:59;1.55;;;1.08;;
28174;SDS011;59417;44.788;10.334;2023-05-17T10:11:31;1.85;;;1.10;;
28174;SDS011;59417;44.788;10.334;2023-05-17T10:16:42;2.58;;;0.73;;
28174;SDS011;59417;44.788;10.334;2023-05-17T10:19:10;3.83;;;1.40;;
28174;SDS011;59417;44.788;10.334;2023-05-17T10:21:36;1.40;;;1.30;;
28174;SDS011;59417;44.788;10.334;2023-05-17T10:24:03;1.42;;;1.10;;
28174;SDS011;59417;44.788;10.334;2023-05-17T10:26:30;2.35;;;1.10;;
28174;SDS011;59417;44.788;10.334;2023-05-17T10:28:57;1.02;;;0.80;;
28174;SDS011;59417;44.788;10.334;2023-05-17T10:31:28;1.23;;;0.95;;
28174;SDS011;59417;44.788;10.334;2023-05-17T10:33:56;1.00;;;0.90;;
28174;SDS011;59417;44.788;10.334;2023-05-17T10:36:23;3.10;;;1.00;;
28174;SDS011;59417;44.788;10.334;2023-05-17T10:38:50;1.88;;;1.20;;
28174;SDS011;59417;44.788;10.334;2023-05-17T10:41:17;1.65;;;0.75;;
28174;SDS011;59417;44.788;10.334;2023-05-17T10:43:46;1.73;;;0.93;;
28174;SDS011;59417;44.788;10.334;2023-05-17T10:46:16;3.22;;;1.13;;
28174;SDS011;59417;44.788;10.334;2023-05-17T10:48:52;1.63;;;0.73;;
28174;SDS011;59417;44.788;10.334;2023-05-17T10:51:26;1.17;;;1.08;;
28174;SDS011;59417;44.788;10.334;2023-05-17T10:56:49;1.58;;;0.85;;
28174;SDS011;59417;44.788;10.334;2023-05-17T11:01:50;1.65;;;1.20;;
28174;SDS011;59417;44.788;10.334;2023-05-17T11:04:48;1.23;;;1.08;;
28174;SDS011;59417;44.788;10.334;2023-05-17T11:09:50;1.05;;;0.90;;
28174;SDS011;59417;44.788;10.334;2023-05-17T11:12:32;3.75;;;1.75;;
28174;SDS011;59417;44.788;10.334;2023-05-17T11:23:06;1.55;;;1.20;;
28174;SDS011;59417;44.788;10.334;2023-05-17T11:25:40;1.05;;;0.90;;
28174;SDS011;59417;44.788;10.334;2023-05-17T11:28:16;1.90;;;1.40;;
28174;SDS011;59417;44.788;10.334;2023-05-17T11:30:44;1.90;;;1.20;;
28174;SDS011;59417;44.788;10.334;2023-05-17T11:33:15;1.17;;;0.90;;
28174;SDS011;59417;44.788;10.334;2023-05-17T11:35:41;3.72;;;1.40;;
28174;SDS011;59417;44.788;10.334;2023-05-17T11:38:12;1.20;;;1.10;;
28174;SDS011;59417;44.788;10.334;2023-05-17T11:40:42;1.15;;;1.05;;
28174;SDS011;59417;44.788;10.334;2023-05-17T11:43:26;2.60;;;1.52;;
28174;SDS011;59417;44.788;10.334;2023-05-17T11:45:56;4.70;;;1.40;;
28174;SDS011;59417;44.788;10.334;2023-05-17T11:48:25;3.22;;;1.45;;
28174;SDS011;59417;44.788;10.334;2023-05-17T11:50:52;3.20;;;1.38;;
28174;SDS011;59417;44.788;10.334;2023-05-17T11:53:19;2.40;;;1.40;;
28174;SDS011;59417;44.788;10.334;2023-05-17T11:55:46;2.10;;;1.48;;
28174;SDS011;59417;44.788;10.334;2023-05-17T11:58:15;1.98;;;1.55;;
28174;SDS011;59417;44.788;10.334;2023-05-17T12:00:42;3.17;;;2.88;;
28174;SDS011;59417;44.788;10.334;2023-05-17T12:03:19;2.50;;;1.80;;
28174;SDS011;59417;44.788;10.334;2023-05-17T12:05:50;3.83;;;1.50;;
28174;SDS011;59417;44.788;10.334;2023-05-17T12:08:26;3.75;;;1.77;;
28174;SDS011;59417;44.788;10.334;2023-05-17T12:10:51;2.47;;;1.45;;
28174;SDS011;59417;44.788;10.334;2023-05-17T12:13:18;3.35;;;1.90;;
28174;SDS011;59417;44.788;10.334;2023-05-17T12:15:52;4.40;;;1.90;;
28174;SDS011;59417;44.788;10.334;2023-05-17T12:18:21;2.58;;;1.70;;
28174;SDS011;59417;44.788;10.334;2023-05-17T12:20:54;4.05;;;1.75;;
28174;SDS011;59417;44.788;10.334;2023-05-17T12:23:42;3.10;;;1.83;;
28174;SDS011;59417;44.788;10.334;2023-05-17T12:26:11;4.25;;;1.75;;
28174;SDS011;59417;44.788;10.334;2023-05-17T12:28:39;2.65;;;2.13;;
28174;SDS011;59417;44.788;10.334;2023-05-17T12:31:07;2.58;;;1.83;;
28174;SDS011;59417;44.788;10.334;2023-05-17T12:36:03;4.32;;;2.25;;
28174;SDS011;59417;44.788;10.334;2023-05-17T12:38:30;6.18;;;3.22;;
28174;SDS011;59417;44.788;10.334;2023-05-17T12:40:59;2.45;;;1.83;;
28174;SDS011;59417;44.788;10.334;2023-05-17T12:43:26;2.35;;;2.03;;
28174;SDS011;59417;44.788;10.334;2023-05-17T12:45:55;2.13;;;1.60;;
28174;SDS011;59417;44.788;10.334;2023-05-17T12:48:27;3.80;;;1.35;;
28174;SDS011;59417;44.788;10.334;2023-05-17T12:50:53;2.80;;;1.52;;
28174;SDS011;59417;44.788;10.334;2023-05-17T12:53:20;2.42;;;1.83;;
28174;SDS011;59417;44.788;10.334;2023-05-17T12:55:47;6.07;;;1.90;;
28174;SDS011;59417;44.788;10.334;2023-05-17T12:58:13;3.10;;;2.05;;
28174;SDS011;59417;44.788;10.334;2023-05-17T13:00:39;3.42;;;1.52;;
28174;SDS011;59417;44.788;10.334;2023-05-17T13:03:08;3.83;;;2.00;;
28174;SDS011;59417;44.788;10.334;2023-05-17T13:05:36;1.88;;;1.63;;
28174;SDS011;59417;44.788;10.334;2023-05-17T13:08:17;2.70;;;2.28;;
28174;SDS011;59417;44.788;10.334;2023-05-17T13:10:44;2.40;;;2.17;;
28174;SDS011;59417;44.788;10.334;2023-05-17T13:13:09;2.45;;;1.85;;
28174;SDS011;59417;44.788;10.334;2023-05-17T13:15:45;2.45;;;2.03;;
28174;SDS011;59417;44.788;10.334;2023-05-17T13:18:12;9.55;;;6.72;;
28174;SDS011;59417;44.788;10.334;2023-05-17T13:20:42;4.32;;;2.10;;
28174;SDS011;59417;44.788;10.334;2023-05-17T13:23:08;2.10;;;1.90;;
28174;SDS011;59417;44.788;10.334;2023-05-17T13:25:34;12.25;;;2.17;;
28174;SDS011;59417;44.788;10.334;2023-05-17T13:28:02;2.50;;;1.95;;
28174;SDS011;59417;44.788;10.334;2023-05-17T13:30:28;3.72;;;1.92;;
28174;SDS011;59417;44.788;10.334;2023-05-17T13:32:54;2.90;;;1.95;;
28174;SDS011;59417;44.788;10.334;2023-05-17T13:35:20;2.20;;;2.00;;
28174;SDS011;59417;44.788;10.334;2023-05-17T13:37:46;2.95;;;1.92;;
28174;SDS011;59417;44.788;10.334;2023-05-17T13:40:12;3.75;;;2.20;;
28174;SDS011;59417;44.788;10.334;2023-05-17T13:42:38;2.40;;;2.15;;
28174;SDS011;59417;44.788;10.334;2023-05-17T13:45:04;2.88;;;1.98;;
28174;SDS011;59417;44.788;10.334;2023-05-17T13:47:33;5.70;;;2.10;;
28174;SDS011;59417;44.788;10.334;2023-05-17T13:50:00;2.10;;;1.67;;
28174;SDS011;59417;44.788;10.334;2023-05-17T13:52:26;3.15;;;1.90;;
28174;SDS011;59417;44.788;10.334;2023-05-17T13:54:52;2.17;;;1.55;;
28174;SDS011;59417;44.788;10.334;2023-05-17T13:57:17;2.05;;;1.70;;
28174;SDS011;59417;44.788;10.334;2023-05-17T13:59:43;2.15;;;1.95;;
28174;SDS011;59417;44.788;10.334;2023-05-17T14:02:10;2.25;;;1.60;;
28174;SDS011;59417;44.788;10.334;2023-05-17T14:04:35;2.45;;;2.10;;
28174;SDS011;59417;44.788;10.334;2023-05-17T14:07:01;2.10;;;1.90;;
28174;SDS011;59417;44.788;10.334;2023-05-17T14:09:28;2.33;;;1.77;;
28174;SDS011;59417;44.788;10.334;2023-05-17T14:11:57;1.75;;;1.45;;
28174;SDS011;59417;44.788;10.334;2023-05-17T14:14:23;2.38;;;2.17;;
28174;SDS011;59417;44.788;10.334;2023-05-17T14:16:52;2.55;;;1.85;;
28174;SDS011;59417;44.788;10.334;2023-05-17T14:19:19;5.65;;;2.10;;
28174;SDS011;59417;44.788;10.334;2023-05-17T14:21:45;1.75;;;1.60;;
28174;SDS011;59417;44.788;10.334;2023-05-17T14:24:11;2.17;;;1.73;;
28174;SDS011;59417;44.788;10.334;2023-05-17T14:26:36;3.65;;;2.13;;
28174;SDS011;59417;44.788;10.334;2023-05-17T14:29:02;2.92;;;2.03;;
28174;SDS011;59417;44.788;10.334;2023-05-17T14:31:30;2.10;;;1.90;;
28174;SDS011;59417;44.788;10.334;2023-05-17T14:33:57;1.95;;;1.70;;
28174;SDS011;59417;44.788;10.334;2023-05-17T14:36:24;2.65;;;1.77;;
28174;SDS011;59417;44.788;10.334;2023-05-17T14:38:50;4.22;;;2.05;;
28174;SDS011;59417;44.788;10.334;2023-05-17T14:41:15;3.55;;;2.85;;
28174;SDS011;59417;44.788;10.334;2023-05-17T14:43:42;4.55;;;2.45;;
28174;SDS011;59417;44.788;10.334;2023-05-17T14:46:08;3.40;;;2.05;;
28174;SDS011;59417;44.788;10.334;2023-05-17T14:48:34;2.65;;;2.30;;
28174;SDS011;59417;44.788;10.334;2023-05-17T14:51:01;2.88;;;2.55;;
28174;SDS011;59417;44.788;10.334;2023-05-17T14:53:27;4.22;;;2.40;;
28174;SDS011;59417;44.788;10.334;2023-05-17T14:55:54;2.97;;;2.25;;
28174;SDS011;59417;44.788;10.334;2023-05-17T14:58:21;3.95;;;2.30;;
28174;SDS011;59417;44.788;10.334;2023-05-17T15:00:47;2.70;;;2.30;;
28174;SDS011;59417;44.788;10.334;2023-05-17T15:03:16;4.45;;;2.38;;
28174;SDS011;59417;44.788;10.334;2023-05-17T15:05:42;5.00;;;2.97;;
28174;SDS011;59417;44.788;10.334;2023-05-17T15:08:08;4.97;;;3.20;;
28174;SDS011;59417;44.788;10.334;2023-05-17T15:10:36;4.55;;;2.85;;
28174;SDS011;59417;44.788;10.334;2023-05-17T15:13:02;2.95;;;2.67;;
28174;SDS011;59417;44.788;10.334;2023-05-17T15:15:28;3.20;;;2.83;;
28174;SDS011;59417;44.788;10.334;2023-05-17T15:17:54;7.00;;;2.67;;